sensor_id;sensor_type;location;lat;lon;timestamp;temperature;humidity
14172;DHT22;7165;52.388;4.928;2023-09-19T00:00:37;16.00;99.90
14172;DHT22;7165;52.388;4.928;2023-09-19T00:03:05;16.00;99.90
14172;DHT22;7165;52.388;4.928;2023-09-19T00:05:34;16.00;99.90
14172;DHT22;7165;52.388;4.928;2023-09-19T00:08:01;16.00;99.90
14172;DHT22;7165;52.388;4.928;2023-09-19T00:10:29;16.10;99.90
14172;DHT22;7165;52.388;4.928;2023-09-19T00:12:57;16.00;99.90
14172;DHT22;7165;52.388;4.928;2023-09-19T00:15:25;16.00;99.90
14172;DHT22;7165;52.388;4.928;2023-09-19T00:17:54;16.00;99.90
14172;DHT22;7165;52.388;4.928;2023-09-19T00:20:21;16.00;99.90
14172;DHT22;7165;52.388;4.928;2023-09-19T00:22:50;16.10;99.90
14172;DHT22;7165;52.388;4.928;2023-09-19T00:25:17;16.10;99.90
14172;DHT22;7165;52.388;4.928;2023-09-19T00:27:44;16.10;99.90
14172;DHT22;7165;52.388;4.928;2023-09-19T00:30:12;16.00;99.90
14172;DHT22;7165;52.388;4.928;2023-09-19T00:32:42;16.00;99.90
14172;DHT22;7165;52.388;4.928;2023-09-19T00:35:08;16.00;99.90
14172;DHT22;7165;52.388;4.928;2023-09-19T00:37:36;16.00;99.90
14172;DHT22;7165;52.388;4.928;2023-09-19T00:40:05;16.00;99.90
14172;DHT22;7165;52.388;4.928;2023-09-19T00:42:34;16.00;99.90
14172;DHT22;7165;52.388;4.928;2023-09-19T00:45:03;16.00;99.90
14172;DHT22;7165;52.388;4.928;2023-09-19T00:47:30;16.00;99.90
14172;DHT22;7165;52.388;4.928;2023-09-19T00:49:57;16.10;99.90
14172;DHT22;7165;52.388;4.928;2023-09-19T00:52:23;16.10;99.90
14172;DHT22;7165;52.388;4.928;2023-09-19T00:54:50;16.00;99.90
14172;DHT22;7165;52.388;4.928;2023-09-19T00:57:18;16.10;99.90
14172;DHT22;7165;52.388;4.928;2023-09-19T00:59:45;16.10;99.90
14172;DHT22;7165;52.388;4.928;2023-09-19T01:02:13;16.10;99.90
14172;DHT22;7165;52.388;4.928;2023-09-19T01:04:40;16.10;99.90
14172;DHT22;7165;52.388;4.928;2023-09-19T01:07:07;16.10;99.90
14172;DHT22;7165;52.388;4.928;2023-09-19T01:09:34;16.10;99.90
14172;DHT22;7165;52.388;4.928;2023-09-19T01:12:02;16.10;99.90
14172;DHT22;7165;52.388;4.928;2023-09-19T01:14:31;16.10;99.90
14172;DHT22;7165;52.388;4.928;2023-09-19T01:17:01;16.10;99.90
14172;DHT22;7165;52.388;4.928;2023-09-19T01:19:48;16.10;99.90
14172;DHT22;7165;52.388;4.928;2023-09-19T01:22:21;16.10;99.90
14172;DHT22;7165;52.388;4.928;2023-09-19T01:25:03;16.20;99.90
14172;DHT22;7165;52.388;4.928;2023-09-19T01:27:46;16.20;99.90
14172;DHT22;7165;52.388;4.928;2023-09-19T01:30:20;16.20;99.90
14172;DHT22;7165;52.388;4.928;2023-09-19T01:32:49;16.10;99.90
14172;DHT22;7165;52.388;4.928;2023-09-19T01:35:17;16.10;99.90
14172;DHT22;7165;52.388;4.928;2023-09-19T01:37:44;16.10;99.90
14172;DHT22;7165;52.388;4.928;2023-09-19T01:40:12;16.10;99.90
14172;DHT22;7165;52.388;4.928;2023-09-19T01:42:43;16.10;99.90
14172;DHT22;7165;52.388;4.928;2023-09-19T01:45:11;16.20;99.90
14172;DHT22;7165;52.388;4.928;2023-09-19T01:47:41;16.20;99.90
14172;DHT22;7165;52.388;4.928;2023-09-19T01:50:12;16.20;99.90
14172;DHT22;7165;52.388;4.928;2023-09-19T01:52:48;16.20;99.90
14172;DHT22;7165;52.388;4.928;2023-09-19T01:55:15;16.20;99.90
14172;DHT22;7165;52.388;4.928;2023-09-19T01:57:46;16.30;99.90
14172;DHT22;7165;52.388;4.928;2023-09-19T02:00:15;16.30;99.90
14172;DHT22;7165;52.388;4.928;2023-09-19T02:02:46;16.30;99.90
14172;DHT22;7165;52.388;4.928;2023-09-19T02:05:13;16.40;99.90
14172;DHT22;7165;52.388;4.928;2023-09-19T02:07:48;16.40;99.90
14172;DHT22;7165;52.388;4.928;2023-09-19T02:10:14;16.40;99.90
14172;DHT22;7165;52.388;4.928;2023-09-19T02:12:42;16.40;99.90
14172;DHT22;7165;52.388;4.928;2023-09-19T02:15:10;16.50;99.90
14172;DHT22;7165;52.388;4.928;2023-09-19T02:17:36;16.50;99.90
14172;DHT22;7165;52.388;4.928;2023-09-19T02:20:05;16.50;99.90
14172;DHT22;7165;52.388;4.928;2023-09-19T02:22:39;16.50;99.90
14172;DHT22;7165;52.388;4.928;2023-09-19T02:25:06;16.50;99.90
14172;DHT22;7165;52.388;4.928;2023-09-19T02:27:33;16.50;99.90
14172;DHT22;7165;52.388;4.928;2023-09-19T02:30:00;16.40;99.90
14172;DHT22;7165;52.388;4.928;2023-09-19T02:32:29;16.40;99.90
14172;DHT22;7165;52.388;4.928;2023-09-19T02:34:56;16.40;99.90
14172;DHT22;7165;52.388;4.928;2023-09-19T02:37:24;16.40;99.90
14172;DHT22;7165;52.388;4.928;2023-09-19T02:39:51;16.30;99.90
14172;DHT22;7165;52.388;4.928;2023-09-19T02:42:17;16.30;99.90
14172;DHT22;7165;52.388;4.928;2023-09-19T02:44:44;16.30;99.90
14172;DHT22;7165;52.388;4.928;2023-09-19T02:47:12;16.30;99.90
14172;DHT22;7165;52.388;4.928;2023-09-19T02:49:40;16.30;99.90
14172;DHT22;7165;52.388;4.928;2023-09-19T02:52:07;16.30;99.90
14172;DHT22;7165;52.388;4.928;2023-09-19T02:54:35;16.30;99.90
14172;DHT22;7165;52.388;4.928;2023-09-19T02:57:02;16.40;99.90
14172;DHT22;7165;52.388;4.928;2023-09-19T02:59:31;16.40;99.90
14172;DHT22;7165;52.388;4.928;2023-09-19T03:01:58;16.40;99.90
14172;DHT22;7165;52.388;4.928;2023-09-19T03:04:25;16.40;99.90
14172;DHT22;7165;52.388;4.928;2023-09-19T03:06:52;16.40;99.90
14172;DHT22;7165;52.388;4.928;2023-09-19T03:09:23;16.40;99.90
14172;DHT22;7165;52.388;4.928;2023-09-19T03:11:51;16.40;99.90
14172;DHT22;7165;52.388;4.928;2023-09-19T03:14:18;16.40;99.90
14172;DHT22;7165;52.388;4.928;2023-09-19T03:16:45;16.40;99.90
14172;DHT22;7165;52.388;4.928;2023-09-19T03:19:11;16.40;99.90
14172;DHT22;7165;52.388;4.928;2023-09-19T03:21:40;16.40;99.90
14172;DHT22;7165;52.388;4.928;2023-09-19T03:24:07;16.40;99.90
14172;DHT22;7165;52.388;4.928;2023-09-19T03:26:33;16.40;99.90
14172;DHT22;7165;52.388;4.928;2023-09-19T03:29:04;16.40;99.90
14172;DHT22;7165;52.388;4.928;2023-09-19T03:31:33;16.30;99.90
14172;DHT22;7165;52.388;4.928;2023-09-19T03:34:02;16.30;99.90
14172;DHT22;7165;52.388;4.928;2023-09-19T03:36:28;16.20;99.90
14172;DHT22;7165;52.388;4.928;2023-09-19T03:38:55;16.30;99.90
14172;DHT22;7165;52.388;4.928;2023-09-19T03:41:21;16.30;99.90
14172;DHT22;7165;52.388;4.928;2023-09-19T03:43:49;16.30;99.90
14172;DHT22;7165;52.388;4.928;2023-09-19T03:46:17;16.30;99.90
14172;DHT22;7165;52.388;4.928;2023-09-19T03:48:43;16.30;99.90
14172;DHT22;7165;52.388;4.928;2023-09-19T03:51:10;16.20;99.90
14172;DHT22;7165;52.388;4.928;2023-09-19T03:53:37;16.20;99.90
14172;DHT22;7165;52.388;4.928;2023-09-19T03:56:03;16.30;99.90
14172;DHT22;7165;52.388;4.928;2023-09-19T03:58:30;16.30;99.90
14172;DHT22;7165;52.388;4.928;2023-09-19T04:00:57;16.30;99.90
14172;DHT22;7165;52.388;4.928;2023-09-19T04:03:25;16.20;99.90
14172;DHT22;7165;52.388;4.928;2023-09-19T04:06:00;16.20;99.90
14172;DHT22;7165;52.388;4.928;2023-09-19T04:08:27;16.20;99.90
14172;DHT22;7165;52.388;4.928;2023-09-19T04:10:54;16.20;99.90
14172;DHT22;7165;52.388;4.928;2023-09-19T04:13:22;16.20;99.90
14172;DHT22;7165;52.388;4.928;2023-09-19T04:15:48;16.20;99.90
14172;DHT22;7165;52.388;4.928;2023-09-19T04:18:15;16.20;99.90
14172;DHT22;7165;52.388;4.928;2023-09-19T04:20:43;16.20;99.90
14172;DHT22;7165;52.388;4.928;2023-09-19T04:23:13;16.20;99.90
14172;DHT22;7165;52.388;4.928;2023-09-19T04:25:40;16.20;99.90
14172;DHT22;7165;52.388;4.928;2023-09-19T04:28:06;16.20;99.90
14172;DHT22;7165;52.388;4.928;2023-09-19T04:30:34;16.30;99.90
14172;DHT22;7165;52.388;4.928;2023-09-19T04:33:00;16.30;99.90
14172;DHT22;7165;52.388;4.928;2023-09-19T04:35:28;16.40;99.90
14172;DHT22;7165;52.388;4.928;2023-09-19T04:37:58;16.40;99.90
14172;DHT22;7165;52.388;4.928;2023-09-19T04:40:24;16.40;99.90
14172;DHT22;7165;52.388;4.928;2023-09-19T04:42:52;16.30;99.90
14172;DHT22;7165;52.388;4.928;2023-09-19T04:45:21;16.30;99.90
14172;DHT22;7165;52.388;4.928;2023-09-19T04:47:48;16.30;99.90
14172;DHT22;7165;52.388;4.928;2023-09-19T04:50:15;16.40;99.90
14172;DHT22;7165;52.388;4.928;2023-09-19T04:52:42;16.40;99.90
14172;DHT22;7165;52.388;4.928;2023-09-19T04:55:11;16.30;99.90
14172;DHT22;7165;52.388;4.928;2023-09-19T04:57:41;16.30;99.90
14172;DHT22;7165;52.388;4.928;2023-09-19T05:00:08;16.40;99.90
14172;DHT22;7165;52.388;4.928;2023-09-19T05:02:38;16.40;99.90
14172;DHT22;7165;52.388;4.928;2023-09-19T05:05:05;16.40;99.90
14172;DHT22;7165;52.388;4.928;2023-09-19T05:07:32;16.30;99.90
14172;DHT22;7165;52.388;4.928;2023-09-19T05:09:59;16.20;99.90
14172;DHT22;7165;52.388;4.928;2023-09-19T05:12:27;16.10;99.90
14172;DHT22;7165;52.388;4.928;2023-09-19T05:14:53;16.00;99.90
14172;DHT22;7165;52.388;4.928;2023-09-19T05:17:20;15.90;99.90
14172;DHT22;7165;52.388;4.928;2023-09-19T05:19:46;15.90;99.90
14172;DHT22;7165;52.388;4.928;2023-09-19T05:22:13;15.90;99.90
14172;DHT22;7165;52.388;4.928;2023-09-19T05:24:39;15.90;99.90
14172;DHT22;7165;52.388;4.928;2023-09-19T05:27:06;15.90;99.90
14172;DHT22;7165;52.388;4.928;2023-09-19T05:29:34;16.00;99.90
14172;DHT22;7165;52.388;4.928;2023-09-19T05:32:01;16.00;99.90
14172;DHT22;7165;52.388;4.928;2023-09-19T05:34:29;16.00;99.90
14172;DHT22;7165;52.388;4.928;2023-09-19T05:36:55;16.00;99.90
14172;DHT22;7165;52.388;4.928;2023-09-19T05:39:22;16.00;99.90
14172;DHT22;7165;52.388;4.928;2023-09-19T05:41:48;16.00;99.90
14172;DHT22;7165;52.388;4.928;2023-09-19T05:44:15;16.00;99.90
14172;DHT22;7165;52.388;4.928;2023-09-19T05:46:43;16.00;99.90
14172;DHT22;7165;52.388;4.928;2023-09-19T05:49:10;16.00;99.90
14172;DHT22;7165;52.388;4.928;2023-09-19T05:51:37;16.10;99.90
14172;DHT22;7165;52.388;4.928;2023-09-19T05:54:03;16.10;99.90
14172;DHT22;7165;52.388;4.928;2023-09-19T05:56:30;16.10;99.90
14172;DHT22;7165;52.388;4.928;2023-09-19T05:58:56;16.20;99.90
14172;DHT22;7165;52.388;4.928;2023-09-19T06:01:23;16.20;99.90
14172;DHT22;7165;52.388;4.928;2023-09-19T06:03:51;16.10;99.90
14172;DHT22;7165;52.388;4.928;2023-09-19T06:06:18;16.20;99.90
14172;DHT22;7165;52.388;4.928;2023-09-19T06:08:44;16.20;99.90
14172;DHT22;7165;52.388;4.928;2023-09-19T06:11:11;16.20;99.90
14172;DHT22;7165;52.388;4.928;2023-09-19T06:13:37;16.30;99.90
14172;DHT22;7165;52.388;4.928;2023-09-19T06:16:05;16.30;99.90
14172;DHT22;7165;52.388;4.928;2023-09-19T06:18:32;16.40;99.90
14172;DHT22;7165;52.388;4.928;2023-09-19T06:21:01;16.40;99.90
14172;DHT22;7165;52.388;4.928;2023-09-19T06:23:30;16.50;99.90
14172;DHT22;7165;52.388;4.928;2023-09-19T06:25:57;16.50;99.90
14172;DHT22;7165;52.388;4.928;2023-09-19T06:28:23;16.60;99.90
14172;DHT22;7165;52.388;4.928;2023-09-19T06:30:51;16.70;99.90
14172;DHT22;7165;52.388;4.928;2023-09-19T06:33:17;16.60;99.90
14172;DHT22;7165;52.388;4.928;2023-09-19T06:35:45;16.50;99.90
14172;DHT22;7165;52.388;4.928;2023-09-19T06:38:13;16.40;99.90
14172;DHT22;7165;52.388;4.928;2023-09-19T06:40:41;16.30;99.90
14172;DHT22;7165;52.388;4.928;2023-09-19T06:43:09;16.30;99.90
14172;DHT22;7165;52.388;4.928;2023-09-19T06:45:36;16.20;99.90
14172;DHT22;7165;52.388;4.928;2023-09-19T06:48:02;16.20;99.90
14172;DHT22;7165;52.388;4.928;2023-09-19T06:50:30;16.20;99.90
14172;DHT22;7165;52.388;4.928;2023-09-19T06:52:58;16.20;99.90
14172;DHT22;7165;52.388;4.928;2023-09-19T06:55:27;16.20;99.90
14172;DHT22;7165;52.388;4.928;2023-09-19T06:57:56;16.20;99.90
14172;DHT22;7165;52.388;4.928;2023-09-19T07:00:23;16.20;99.90
14172;DHT22;7165;52.388;4.928;2023-09-19T07:02:57;16.20;99.90
14172;DHT22;7165;52.388;4.928;2023-09-19T07:05:24;16.30;99.90
14172;DHT22;7165;52.388;4.928;2023-09-19T07:07:50;16.30;99.90
14172;DHT22;7165;52.388;4.928;2023-09-19T07:10:17;16.40;99.90
14172;DHT22;7165;52.388;4.928;2023-09-19T07:12:46;16.40;99.90
14172;DHT22;7165;52.388;4.928;2023-09-19T07:15:13;16.40;99.90
14172;DHT22;7165;52.388;4.928;2023-09-19T07:17:39;16.50;99.90
14172;DHT22;7165;52.388;4.928;2023-09-19T07:20:06;16.50;99.90
14172;DHT22;7165;52.388;4.928;2023-09-19T07:22:33;16.60;99.90
14172;DHT22;7165;52.388;4.928;2023-09-19T07:25:00;16.60;99.90
14172;DHT22;7165;52.388;4.928;2023-09-19T07:27:26;16.70;99.90
14172;DHT22;7165;52.388;4.928;2023-09-19T07:29:54;16.80;99.90
14172;DHT22;7165;52.388;4.928;2023-09-19T07:32:20;16.80;99.90
14172;DHT22;7165;52.388;4.928;2023-09-19T07:34:47;16.90;99.90
14172;DHT22;7165;52.388;4.928;2023-09-19T07:37:13;17.00;99.90
14172;DHT22;7165;52.388;4.928;2023-09-19T07:39:40;17.00;99.90
14172;DHT22;7165;52.388;4.928;2023-09-19T07:42:08;17.10;99.90
14172;DHT22;7165;52.388;4.928;2023-09-19T07:44:36;17.20;99.90
14172;DHT22;7165;52.388;4.928;2023-09-19T07:47:04;17.30;99.90
14172;DHT22;7165;52.388;4.928;2023-09-19T07:49:31;17.40;99.90
14172;DHT22;7165;52.388;4.928;2023-09-19T07:51:57;17.40;99.90
14172;DHT22;7165;52.388;4.928;2023-09-19T07:54:24;17.50;99.90
14172;DHT22;7165;52.388;4.928;2023-09-19T07:56:50;17.70;99.90
14172;DHT22;7165;52.388;4.928;2023-09-19T07:59:17;17.80;99.90
14172;DHT22;7165;52.388;4.928;2023-09-19T08:01:43;17.90;99.90
14172;DHT22;7165;52.388;4.928;2023-09-19T08:04:11;17.90;99.90
14172;DHT22;7165;52.388;4.928;2023-09-19T08:06:38;18.10;99.90
14172;DHT22;7165;52.388;4.928;2023-09-19T08:09:04;18.10;99.90
14172;DHT22;7165;52.388;4.928;2023-09-19T08:11:33;18.20;99.90
14172;DHT22;7165;52.388;4.928;2023-09-19T08:13:59;18.20;99.90
14172;DHT22;7165;52.388;4.928;2023-09-19T08:16:26;18.30;99.90
14172;DHT22;7165;52.388;4.928;2023-09-19T08:18:52;18.20;99.90
14172;DHT22;7165;52.388;4.928;2023-09-19T08:21:21;18.20;99.90
14172;DHT22;7165;52.388;4.928;2023-09-19T08:23:49;18.30;99.90
14172;DHT22;7165;52.388;4.928;2023-09-19T08:26:15;18.20;99.90
14172;DHT22;7165;52.388;4.928;2023-09-19T08:28:43;18.20;99.90
14172;DHT22;7165;52.388;4.928;2023-09-19T08:31:09;18.20;99.90
14172;DHT22;7165;52.388;4.928;2023-09-19T08:33:36;18.30;99.90
14172;DHT22;7165;52.388;4.928;2023-09-19T08:36:04;18.30;99.90
14172;DHT22;7165;52.388;4.928;2023-09-19T08:38:33;18.30;99.90
14172;DHT22;7165;52.388;4.928;2023-09-19T08:41:00;18.40;99.90
14172;DHT22;7165;52.388;4.928;2023-09-19T08:43:29;18.40;99.90
14172;DHT22;7165;52.388;4.928;2023-09-19T08:45:56;18.40;99.90
14172;DHT22;7165;52.388;4.928;2023-09-19T08:48:25;18.50;99.90
14172;DHT22;7165;52.388;4.928;2023-09-19T08:50:55;18.60;99.90
14172;DHT22;7165;52.388;4.928;2023-09-19T08:53:26;18.60;99.90
14172;DHT22;7165;52.388;4.928;2023-09-19T08:55:56;18.60;99.90
14172;DHT22;7165;52.388;4.928;2023-09-19T08:58:25;18.50;99.90
14172;DHT22;7165;52.388;4.928;2023-09-19T09:00:53;18.40;99.90
14172;DHT22;7165;52.388;4.928;2023-09-19T09:03:20;18.40;99.90
14172;DHT22;7165;52.388;4.928;2023-09-19T09:05:47;18.30;99.90
14172;DHT22;7165;52.388;4.928;2023-09-19T09:08:16;18.20;99.90
14172;DHT22;7165;52.388;4.928;2023-09-19T09:10:43;18.10;99.90
14172;DHT22;7165;52.388;4.928;2023-09-19T09:13:11;18.10;99.90
14172;DHT22;7165;52.388;4.928;2023-09-19T09:15:39;18.20;99.90
14172;DHT22;7165;52.388;4.928;2023-09-19T09:18:07;18.20;99.90
14172;DHT22;7165;52.388;4.928;2023-09-19T09:20:34;18.20;99.90
14172;DHT22;7165;52.388;4.928;2023-09-19T09:23:01;18.30;99.90
14172;DHT22;7165;52.388;4.928;2023-09-19T09:28:20;18.30;99.90
14172;DHT22;7165;52.388;4.928;2023-09-19T09:30:47;18.20;99.90
14172;DHT22;7165;52.388;4.928;2023-09-19T09:33:14;18.20;99.90
14172;DHT22;7165;52.388;4.928;2023-09-19T09:35:51;18.30;99.90
14172;DHT22;7165;52.388;4.928;2023-09-19T09:38:18;18.30;99.90
14172;DHT22;7165;52.388;4.928;2023-09-19T09:40:46;18.50;99.90
14172;DHT22;7165;52.388;4.928;2023-09-19T09:43:26;18.70;99.90
14172;DHT22;7165;52.388;4.928;2023-09-19T09:46:05;18.70;99.90
14172;DHT22;7165;52.388;4.928;2023-09-19T09:48:36;18.80;99.90
14172;DHT22;7165;52.388;4.928;2023-09-19T09:51:04;18.80;99.90
14172;DHT22;7165;52.388;4.928;2023-09-19T09:53:33;18.90;99.90
14172;DHT22;7165;52.388;4.928;2023-09-19T09:56:00;19.00;99.90
14172;DHT22;7165;52.388;4.928;2023-09-19T09:58:29;19.00;99.90
14172;DHT22;7165;52.388;4.928;2023-09-19T10:00:57;19.00;99.90
14172;DHT22;7165;52.388;4.928;2023-09-19T10:03:34;19.10;99.90
14172;DHT22;7165;52.388;4.928;2023-09-19T10:06:04;19.10;99.90
14172;DHT22;7165;52.388;4.928;2023-09-19T10:08:57;19.20;99.90
14172;DHT22;7165;52.388;4.928;2023-09-19T10:11:27;19.30;99.90
14172;DHT22;7165;52.388;4.928;2023-09-19T10:13:57;19.30;99.90
14172;DHT22;7165;52.388;4.928;2023-09-19T10:16:23;19.40;99.90
14172;DHT22;7165;52.388;4.928;2023-09-19T10:18:51;19.50;99.90
14172;DHT22;7165;52.388;4.928;2023-09-19T10:21:19;19.60;99.90
14172;DHT22;7165;52.388;4.928;2023-09-19T10:23:48;19.60;99.90
14172;DHT22;7165;52.388;4.928;2023-09-19T10:26:17;19.70;99.90
14172;DHT22;7165;52.388;4.928;2023-09-19T10:28:45;19.70;99.90
14172;DHT22;7165;52.388;4.928;2023-09-19T10:31:14;19.70;99.90
14172;DHT22;7165;52.388;4.928;2023-09-19T10:33:44;19.70;99.90
14172;DHT22;7165;52.388;4.928;2023-09-19T10:36:11;19.60;99.90
14172;DHT22;7165;52.388;4.928;2023-09-19T10:38:38;19.60;99.90
14172;DHT22;7165;52.388;4.928;2023-09-19T10:41:07;19.50;99.90
14172;DHT22;7165;52.388;4.928;2023-09-19T10:43:33;19.40;99.90
14172;DHT22;7165;52.388;4.928;2023-09-19T10:46:07;19.30;99.90
14172;DHT22;7165;52.388;4.928;2023-09-19T10:48:37;19.20;99.90
14172;DHT22;7165;52.388;4.928;2023-09-19T10:51:06;19.10;99.90
14172;DHT22;7165;52.388;4.928;2023-09-19T10:53:40;19.20;99.90
14172;DHT22;7165;52.388;4.928;2023-09-19T10:56:08;19.20;99.90
14172;DHT22;7165;52.388;4.928;2023-09-19T10:58:42;19.10;99.90
14172;DHT22;7165;52.388;4.928;2023-09-19T11:01:10;19.00;99.90
14172;DHT22;7165;52.388;4.928;2023-09-19T11:03:41;19.00;99.90
14172;DHT22;7165;52.388;4.928;2023-09-19T11:06:10;19.00;99.90
14172;DHT22;7165;52.388;4.928;2023-09-19T11:08:51;19.10;99.90
14172;DHT22;7165;52.388;4.928;2023-09-19T11:14:40;19.10;99.90
14172;DHT22;7165;52.388;4.928;2023-09-19T11:20:18;19.10;99.90
14172;DHT22;7165;52.388;4.928;2023-09-19T11:25:41;19.40;99.90
14172;DHT22;7165;52.388;4.928;2023-09-19T11:28:28;19.60;99.90
14172;DHT22;7165;52.388;4.928;2023-09-19T11:30:56;19.70;99.90
14172;DHT22;7165;52.388;4.928;2023-09-19T11:33:24;19.70;99.90
14172;DHT22;7165;52.388;4.928;2023-09-19T11:36:01;19.60;99.90
14172;DHT22;7165;52.388;4.928;2023-09-19T11:46:52;19.30;99.90
14172;DHT22;7165;52.388;4.928;2023-09-19T11:49:19;19.30;99.90
14172;DHT22;7165;52.388;4.928;2023-09-19T11:51:50;19.30;99.90
14172;DHT22;7165;52.388;4.928;2023-09-19T11:54:17;19.30;99.90
14172;DHT22;7165;52.388;4.928;2023-09-19T11:56:48;19.40;99.90
14172;DHT22;7165;52.388;4.928;2023-09-19T11:59:19;19.40;99.90
14172;DHT22;7165;52.388;4.928;2023-09-19T12:01:50;19.40;99.90
14172;DHT22;7165;52.388;4.928;2023-09-19T12:04:33;19.30;99.90
14172;DHT22;7165;52.388;4.928;2023-09-19T12:07:01;19.20;99.90
14172;DHT22;7165;52.388;4.928;2023-09-19T12:09:28;19.10;99.90
14172;DHT22;7165;52.388;4.928;2023-09-19T12:11:54;19.00;99.90
14172;DHT22;7165;52.388;4.928;2023-09-19T12:14:22;19.00;99.90
14172;DHT22;7165;52.388;4.928;2023-09-19T12:16:52;18.90;99.90
14172;DHT22;7165;52.388;4.928;2023-09-19T12:19:21;18.80;99.90
14172;DHT22;7165;52.388;4.928;2023-09-19T12:21:55;18.80;99.90
14172;DHT22;7165;52.388;4.928;2023-09-19T12:24:25;18.80;99.90
14172;DHT22;7165;52.388;4.928;2023-09-19T12:26:59;18.70;99.90
14172;DHT22;7165;52.388;4.928;2023-09-19T12:29:26;18.70;99.90
14172;DHT22;7165;52.388;4.928;2023-09-19T12:31:55;18.50;99.90
14172;DHT22;7165;52.388;4.928;2023-09-19T12:34:23;18.40;99.90
14172;DHT22;7165;52.388;4.928;2023-09-19T12:37:08;18.40;99.90
14172;DHT22;7165;52.388;4.928;2023-09-19T12:39:42;18.30;99.90
14172;DHT22;7165;52.388;4.928;2023-09-19T12:42:10;18.30;99.90
14172;DHT22;7165;52.388;4.928;2023-09-19T12:44:40;18.40;99.90
14172;DHT22;7165;52.388;4.928;2023-09-19T12:47:09;18.50;99.90
14172;DHT22;7165;52.388;4.928;2023-09-19T12:49:36;18.60;99.90
14172;DHT22;7165;52.388;4.928;2023-09-19T12:52:03;18.90;99.90
14172;DHT22;7165;52.388;4.928;2023-09-19T12:54:37;19.10;99.90
14172;DHT22;7165;52.388;4.928;2023-09-19T12:57:06;19.20;99.90
14172;DHT22;7165;52.388;4.928;2023-09-19T12:59:32;19.20;99.90
14172;DHT22;7165;52.388;4.928;2023-09-19T13:02:04;19.30;99.90
14172;DHT22;7165;52.388;4.928;2023-09-19T13:04:32;19.40;99.90
14172;DHT22;7165;52.388;4.928;2023-09-19T13:07:00;19.50;99.90
14172;DHT22;7165;52.388;4.928;2023-09-19T13:09:27;19.50;99.90
14172;DHT22;7165;52.388;4.928;2023-09-19T13:11:59;19.50;99.90
14172;DHT22;7165;52.388;4.928;2023-09-19T13:14:29;19.40;99.90
14172;DHT22;7165;52.388;4.928;2023-09-19T13:16:59;19.40;99.90
14172;DHT22;7165;52.388;4.928;2023-09-19T13:19:41;19.40;99.90
14172;DHT22;7165;52.388;4.928;2023-09-19T13:24:56;19.30;99.90
14172;DHT22;7165;52.388;4.928;2023-09-19T13:27:23;19.40;99.90
14172;DHT22;7165;52.388;4.928;2023-09-19T13:29:51;19.30;99.90
14172;DHT22;7165;52.388;4.928;2023-09-19T13:32:18;19.30;99.90
14172;DHT22;7165;52.388;4.928;2023-09-19T13:34:44;19.30;99.90
14172;DHT22;7165;52.388;4.928;2023-09-19T13:37:11;19.20;99.90
14172;DHT22;7165;52.388;4.928;2023-09-19T13:39:38;19.20;99.90
14172;DHT22;7165;52.388;4.928;2023-09-19T13:42:07;19.10;99.90
14172;DHT22;7165;52.388;4.928;2023-09-19T13:44:37;19.10;99.90
14172;DHT22;7165;52.388;4.928;2023-09-19T13:47:05;19.00;99.90
14172;DHT22;7165;52.388;4.928;2023-09-19T13:49:34;19.10;99.90
14172;DHT22;7165;52.388;4.928;2023-09-19T13:52:01;19.10;99.90
14172;DHT22;7165;52.388;4.928;2023-09-19T13:54:30;19.20;99.90
14172;DHT22;7165;52.388;4.928;2023-09-19T13:56:57;19.10;99.90
14172;DHT22;7165;52.388;4.928;2023-09-19T13:59:23;19.10;99.90
14172;DHT22;7165;52.388;4.928;2023-09-19T14:01:50;19.00;99.90
14172;DHT22;7165;52.388;4.928;2023-09-19T14:04:21;18.90;99.90
14172;DHT22;7165;52.388;4.928;2023-09-19T14:06:48;18.80;99.90
14172;DHT22;7165;52.388;4.928;2023-09-19T14:09:14;18.60;99.90
14172;DHT22;7165;52.388;4.928;2023-09-19T14:11:44;18.50;99.90
14172;DHT22;7165;52.388;4.928;2023-09-19T14:14:12;18.40;99.90
14172;DHT22;7165;52.388;4.928;2023-09-19T14:16:39;18.30;99.90
14172;DHT22;7165;52.388;4.928;2023-09-19T14:19:07;18.30;99.90
14172;DHT22;7165;52.388;4.928;2023-09-19T14:21:35;18.30;99.90
14172;DHT22;7165;52.388;4.928;2023-09-19T14:24:04;18.30;99.90
14172;DHT22;7165;52.388;4.928;2023-09-19T14:26:34;18.30;99.90
14172;DHT22;7165;52.388;4.928;2023-09-19T14:29:01;18.30;99.90
14172;DHT22;7165;52.388;4.928;2023-09-19T14:31:27;18.30;99.90
14172;DHT22;7165;52.388;4.928;2023-09-19T14:33:54;18.30;99.90
14172;DHT22;7165;52.388;4.928;2023-09-19T14:36:22;18.20;99.90
14172;DHT22;7165;52.388;4.928;2023-09-19T14:38:53;18.20;99.90
14172;DHT22;7165;52.388;4.928;2023-09-19T14:41:20;18.20;99.90
14172;DHT22;7165;52.388;4.928;2023-09-19T14:43:48;18.10;99.90
14172;DHT22;7165;52.388;4.928;2023-09-19T14:46:14;18.10;99.90
14172;DHT22;7165;52.388;4.928;2023-09-19T14:48:41;18.10;99.90
14172;DHT22;7165;52.388;4.928;2023-09-19T14:51:08;18.00;99.90
14172;DHT22;7165;52.388;4.928;2023-09-19T14:53:35;18.00;99.90
14172;DHT22;7165;52.388;4.928;2023-09-19T14:56:04;18.00;99.90
14172;DHT22;7165;52.388;4.928;2023-09-19T14:58:31;18.00;99.90
14172;DHT22;7165;52.388;4.928;2023-09-19T15:01:04;18.10;99.90
14172;DHT22;7165;52.388;4.928;2023-09-19T15:03:31;18.10;99.90
14172;DHT22;7165;52.388;4.928;2023-09-19T15:05:58;18.10;99.90
14172;DHT22;7165;52.388;4.928;2023-09-19T15:08:25;18.10;99.90
14172;DHT22;7165;52.388;4.928;2023-09-19T15:10:52;18.00;99.90
14172;DHT22;7165;52.388;4.928;2023-09-19T15:13:20;17.90;99.90
14172;DHT22;7165;52.388;4.928;2023-09-19T15:15:46;17.80;99.90
14172;DHT22;7165;52.388;4.928;2023-09-19T15:18:13;17.80;99.90
14172;DHT22;7165;52.388;4.928;2023-09-19T15:20:42;17.70;99.90
14172;DHT22;7165;52.388;4.928;2023-09-19T15:23:08;17.70;99.90
14172;DHT22;7165;52.388;4.928;2023-09-19T15:25:36;17.70;99.90
14172;DHT22;7165;52.388;4.928;2023-09-19T15:28:03;17.70;99.90
14172;DHT22;7165;52.388;4.928;2023-09-19T15:30:37;17.60;99.90
14172;DHT22;7165;52.388;4.928;2023-09-19T15:33:04;17.60;99.90
14172;DHT22;7165;52.388;4.928;2023-09-19T15:35:31;17.50;99.90
14172;DHT22;7165;52.388;4.928;2023-09-19T15:37:57;17.50;99.90
14172;DHT22;7165;52.388;4.928;2023-09-19T15:40:24;17.50;99.90
14172;DHT22;7165;52.388;4.928;2023-09-19T15:42:51;17.40;99.90
14172;DHT22;7165;52.388;4.928;2023-09-19T15:45:18;17.40;99.90
14172;DHT22;7165;52.388;4.928;2023-09-19T15:47:46;17.40;99.90
14172;DHT22;7165;52.388;4.928;2023-09-19T15:50:13;17.40;99.90
14172;DHT22;7165;52.388;4.928;2023-09-19T15:52:40;17.40;99.90
14172;DHT22;7165;52.388;4.928;2023-09-19T15:55:07;17.40;99.90
14172;DHT22;7165;52.388;4.928;2023-09-19T15:57:36;17.40;99.90
14172;DHT22;7165;52.388;4.928;2023-09-19T16:00:02;17.40;99.90
14172;DHT22;7165;52.388;4.928;2023-09-19T16:02:35;17.40;99.90
14172;DHT22;7165;52.388;4.928;2023-09-19T16:05:03;17.40;99.90
14172;DHT22;7165;52.388;4.928;2023-09-19T16:07:32;17.40;99.90
14172;DHT22;7165;52.388;4.928;2023-09-19T16:09:59;17.40;99.90
14172;DHT22;7165;52.388;4.928;2023-09-19T16:12:25;17.40;99.90
14172;DHT22;7165;52.388;4.928;2023-09-19T16:14:52;17.40;99.90